sensor_id;sensor_type;location;lat;lon;timestamp;temperature;humidity
57857;DHT22;43683;48.650;9.290;2023-03-20T00:01:23;8.30;88.10
57857;DHT22;43683;48.650;9.290;2023-03-20T00:03:50;8.20;88.50
57857;DHT22;43683;48.650;9.290;2023-03-20T00:06:18;8.10;88.90
57857;DHT22;43683;48.650;9.290;2023-03-20T00:08:45;7.90;89.80
57857;DHT22;43683;48.650;9.290;2023-03-20T00:13:47;7.80;89.60
57857;DHT22;43683;48.650;9.290;2023-03-20T00:16:12;7.90;89.10
57857;DHT22;43683;48.650;9.290;2023-03-20T00:18:38;8.00;88.70
57857;DHT22;43683;48.650;9.290;2023-03-20T00:21:11;8.10;88.40
57857;DHT22;43683;48.650;9.290;2023-03-20T00:23:40;8.20;88.20
57857;DHT22;43683;48.650;9.290;2023-03-20T00:26:11;8.30;87.80
57857;DHT22;43683;48.650;9.290;2023-03-20T00:28:40;8.40;87.60
57857;DHT22;43683;48.650;9.290;2023-03-20T00:31:28;8.50;87.40
57857;DHT22;43683;48.650;9.290;2023-03-20T00:33:59;8.50;87.40
57857;DHT22;43683;48.650;9.290;2023-03-20T00:36:26;8.50;87.20
57857;DHT22;43683;48.650;9.290;2023-03-20T00:38:52;8.50;87.20
57857;DHT22;43683;48.650;9.290;2023-03-20T00:43:55;8.50;87.70
57857;DHT22;43683;48.650;9.290;2023-03-20T00:46:23;8.50;87.80
57857;DHT22;43683;48.650;9.290;2023-03-20T00:48:49;8.50;87.70
57857;DHT22;43683;48.650;9.290;2023-03-20T00:51:15;8.50;87.80
57857;DHT22;43683;48.650;9.290;2023-03-20T00:53:40;8.50;87.80
57857;DHT22;43683;48.650;9.290;2023-03-20T00:56:08;8.50;87.80
57857;DHT22;43683;48.650;9.290;2023-03-20T00:58:37;8.40;87.80
57857;DHT22;43683;48.650;9.290;2023-03-20T01:01:03;8.50;87.90
57857;DHT22;43683;48.650;9.290;2023-03-20T01:03:28;8.50;87.90
57857;DHT22;43683;48.650;9.290;2023-03-20T01:05:54;8.50;87.90
57857;DHT22;43683;48.650;9.290;2023-03-20T01:08:24;8.50;87.80
57857;DHT22;43683;48.650;9.290;2023-03-20T01:10:52;8.50;87.80
57857;DHT22;43683;48.650;9.290;2023-03-20T01:13:27;8.50;87.80
57857;DHT22;43683;48.650;9.290;2023-03-20T01:15:54;8.40;88.00
57857;DHT22;43683;48.650;9.290;2023-03-20T01:18:21;8.40;88.10
57857;DHT22;43683;48.650;9.290;2023-03-20T01:20:48;8.40;87.80
57857;DHT22;43683;48.650;9.290;2023-03-20T01:23:14;8.30;87.80
57857;DHT22;43683;48.650;9.290;2023-03-20T01:25:40;8.20;88.20
57857;DHT22;43683;48.650;9.290;2023-03-20T01:28:21;8.10;88.60
57857;DHT22;43683;48.650;9.290;2023-03-20T01:30:47;8.00;89.10
57857;DHT22;43683;48.650;9.290;2023-03-20T01:33:18;7.90;89.00
57857;DHT22;43683;48.650;9.290;2023-03-20T01:35:46;7.90;90.00
57857;DHT22;43683;48.650;9.290;2023-03-20T01:38:22;7.90;89.20
57857;DHT22;43683;48.650;9.290;2023-03-20T01:40:58;7.90;89.30
57857;DHT22;43683;48.650;9.290;2023-03-20T01:43:27;7.90;89.30
57857;DHT22;43683;48.650;9.290;2023-03-20T01:51:35;7.90;88.70
57857;DHT22;43683;48.650;9.290;2023-03-20T01:54:08;7.90;88.60
57857;DHT22;43683;48.650;9.290;2023-03-20T01:56:59;8.00;88.60
57857;DHT22;43683;48.650;9.290;2023-03-20T01:59:37;8.00;88.60
57857;DHT22;43683;48.650;9.290;2023-03-20T02:02:05;8.00;88.40
57857;DHT22;43683;48.650;9.290;2023-03-20T02:04:35;8.10;88.30
57857;DHT22;43683;48.650;9.290;2023-03-20T02:07:03;8.10;88.30
57857;DHT22;43683;48.650;9.290;2023-03-20T02:09:29;8.10;88.10
57857;DHT22;43683;48.650;9.290;2023-03-20T02:11:56;8.10;88.00
57857;DHT22;43683;48.650;9.290;2023-03-20T02:14:22;8.10;88.00
57857;DHT22;43683;48.650;9.290;2023-03-20T02:16:48;8.20;88.10
57857;DHT22;43683;48.650;9.290;2023-03-20T02:19:26;8.20;88.10
57857;DHT22;43683;48.650;9.290;2023-03-20T02:22:18;8.20;88.40
57857;DHT22;43683;48.650;9.290;2023-03-20T02:36:12;8.10;87.70
57857;DHT22;43683;48.650;9.290;2023-03-20T02:41:36;8.10;87.70
57857;DHT22;43683;48.650;9.290;2023-03-20T02:44:11;8.10;87.70
57857;DHT22;43683;48.650;9.290;2023-03-20T02:49:55;8.10;87.80
57857;DHT22;43683;48.650;9.290;2023-03-20T02:55:37;8.10;87.90
57857;DHT22;43683;48.650;9.290;2023-03-20T03:01:13;8.10;88.00
57857;DHT22;43683;48.650;9.290;2023-03-20T03:03:57;8.10;87.90
57857;DHT22;43683;48.650;9.290;2023-03-20T03:06:33;8.20;88.00
57857;DHT22;43683;48.650;9.290;2023-03-20T03:09:19;8.20;88.00
57857;DHT22;43683;48.650;9.290;2023-03-20T03:11:58;8.20;88.00
57857;DHT22;43683;48.650;9.290;2023-03-20T03:16:55;8.20;87.60
57857;DHT22;43683;48.650;9.290;2023-03-20T03:19:22;8.20;87.50
57857;DHT22;43683;48.650;9.290;2023-03-20T03:21:49;8.30;87.30
57857;DHT22;43683;48.650;9.290;2023-03-20T03:24:51;8.30;87.20
57857;DHT22;43683;48.650;9.290;2023-03-20T03:29:55;8.30;87.50
57857;DHT22;43683;48.650;9.290;2023-03-20T03:32:32;8.30;87.50
57857;DHT22;43683;48.650;9.290;2023-03-20T03:34:59;8.30;87.60
57857;DHT22;43683;48.650;9.290;2023-03-20T03:40:15;8.30;87.80
57857;DHT22;43683;48.650;9.290;2023-03-20T03:42:51;8.30;87.80
57857;DHT22;43683;48.650;9.290;2023-03-20T03:45:48;8.30;87.90
57857;DHT22;43683;48.650;9.290;2023-03-20T03:48:18;8.30;87.90
57857;DHT22;43683;48.650;9.290;2023-03-20T03:50:55;8.30;87.80
57857;DHT22;43683;48.650;9.290;2023-03-20T03:53:26;8.30;87.90
57857;DHT22;43683;48.650;9.290;2023-03-20T03:55:55;8.30;87.90
57857;DHT22;43683;48.650;9.290;2023-03-20T03:58:41;8.30;88.00
57857;DHT22;43683;48.650;9.290;2023-03-20T04:01:08;8.20;88.10
57857;DHT22;43683;48.650;9.290;2023-03-20T04:03:40;8.30;88.00
57857;DHT22;43683;48.650;9.290;2023-03-20T04:06:09;8.20;88.10
57857;DHT22;43683;48.650;9.290;2023-03-20T04:08:35;8.30;88.10
57857;DHT22;43683;48.650;9.290;2023-03-20T04:11:01;8.30;88.10
57857;DHT22;43683;48.650;9.290;2023-03-20T04:13:27;8.20;88.10
57857;DHT22;43683;48.650;9.290;2023-03-20T04:15:52;8.20;88.10
57857;DHT22;43683;48.650;9.290;2023-03-20T04:18:18;8.20;88.20
57857;DHT22;43683;48.650;9.290;2023-03-20T04:20:45;8.30;88.20
57857;DHT22;43683;48.650;9.290;2023-03-20T04:23:11;8.20;88.20
57857;DHT22;43683;48.650;9.290;2023-03-20T04:25:36;8.20;88.10
57857;DHT22;43683;48.650;9.290;2023-03-20T04:28:02;8.20;88.10
57857;DHT22;43683;48.650;9.290;2023-03-20T04:30:28;8.20;88.30
57857;DHT22;43683;48.650;9.290;2023-03-20T04:32:53;8.20;88.40
57857;DHT22;43683;48.650;9.290;2023-03-20T04:35:19;8.20;88.40
57857;DHT22;43683;48.650;9.290;2023-03-20T04:37:44;8.20;88.40
57857;DHT22;43683;48.650;9.290;2023-03-20T04:40:10;8.20;88.50
57857;DHT22;43683;48.650;9.290;2023-03-20T04:42:37;8.20;88.60
57857;DHT22;43683;48.650;9.290;2023-03-20T04:45:03;8.20;88.50
57857;DHT22;43683;48.650;9.290;2023-03-20T04:47:28;8.20;88.60
57857;DHT22;43683;48.650;9.290;2023-03-20T04:49:54;8.20;88.60
57857;DHT22;43683;48.650;9.290;2023-03-20T04:52:19;8.10;88.60
57857;DHT22;43683;48.650;9.290;2023-03-20T04:54:45;8.10;88.60
57857;DHT22;43683;48.650;9.290;2023-03-20T04:57:10;8.10;88.60
57857;DHT22;43683;48.650;9.290;2023-03-20T04:59:36;8.10;88.70
57857;DHT22;43683;48.650;9.290;2023-03-20T05:02:01;8.10;88.70
57857;DHT22;43683;48.650;9.290;2023-03-20T05:04:27;8.00;88.70
57857;DHT22;43683;48.650;9.290;2023-03-20T05:06:52;8.00;88.90
57857;DHT22;43683;48.650;9.290;2023-03-20T05:09:18;8.00;89.00
57857;DHT22;43683;48.650;9.290;2023-03-20T05:11:44;7.90;89.00
57857;DHT22;43683;48.650;9.290;2023-03-20T05:14:09;7.90;89.10
57857;DHT22;43683;48.650;9.290;2023-03-20T05:16:36;7.90;89.20
57857;DHT22;43683;48.650;9.290;2023-03-20T05:19:02;7.90;89.20
57857;DHT22;43683;48.650;9.290;2023-03-20T05:21:27;7.90;89.30
57857;DHT22;43683;48.650;9.290;2023-03-20T05:23:53;7.90;89.30
57857;DHT22;43683;48.650;9.290;2023-03-20T05:26:18;7.90;89.20
57857;DHT22;43683;48.650;9.290;2023-03-20T05:28:44;7.90;89.00
57857;DHT22;43683;48.650;9.290;2023-03-20T05:31:09;8.00;89.00
57857;DHT22;43683;48.650;9.290;2023-03-20T05:33:35;8.00;88.90
57857;DHT22;43683;48.650;9.290;2023-03-20T05:36:01;8.00;88.70
57857;DHT22;43683;48.650;9.290;2023-03-20T05:38:26;8.10;88.70
57857;DHT22;43683;48.650;9.290;2023-03-20T05:40:56;8.10;88.60
57857;DHT22;43683;48.650;9.290;2023-03-20T05:43:22;8.10;88.60
57857;DHT22;43683;48.650;9.290;2023-03-20T05:45:48;8.20;88.60
57857;DHT22;43683;48.650;9.290;2023-03-20T05:48:13;8.10;88.60
57857;DHT22;43683;48.650;9.290;2023-03-20T05:50:39;8.20;88.70
57857;DHT22;43683;48.650;9.290;2023-03-20T05:53:05;8.20;88.70
57857;DHT22;43683;48.650;9.290;2023-03-20T05:55:31;8.20;88.70
57857;DHT22;43683;48.650;9.290;2023-03-20T05:57:57;8.30;88.70
57857;DHT22;43683;48.650;9.290;2023-03-20T06:00:23;8.30;88.70
57857;DHT22;43683;48.650;9.290;2023-03-20T06:02:48;8.30;88.60
57857;DHT22;43683;48.650;9.290;2023-03-20T06:05:14;8.40;88.50
57857;DHT22;43683;48.650;9.290;2023-03-20T06:07:40;8.40;89.20
57857;DHT22;43683;48.650;9.290;2023-03-20T06:10:06;8.50;88.40
57857;DHT22;43683;48.650;9.290;2023-03-20T06:12:31;8.50;88.30
57857;DHT22;43683;48.650;9.290;2023-03-20T06:14:57;8.60;88.20
57857;DHT22;43683;48.650;9.290;2023-03-20T06:17:22;8.70;88.00
57857;DHT22;43683;48.650;9.290;2023-03-20T06:19:48;8.70;88.00
57857;DHT22;43683;48.650;9.290;2023-03-20T06:22:13;8.70;87.80
57857;DHT22;43683;48.650;9.290;2023-03-20T06:24:39;8.80;87.70
57857;DHT22;43683;48.650;9.290;2023-03-20T06:27:05;8.90;87.60
57857;DHT22;43683;48.650;9.290;2023-03-20T06:29:30;9.00;87.50
57857;DHT22;43683;48.650;9.290;2023-03-20T06:31:56;9.10;87.20
57857;DHT22;43683;48.650;9.290;2023-03-20T06:34:22;9.10;86.90
57857;DHT22;43683;48.650;9.290;2023-03-20T06:36:47;9.20;86.80
57857;DHT22;43683;48.650;9.290;2023-03-20T06:39:13;9.30;86.70
57857;DHT22;43683;48.650;9.290;2023-03-20T06:41:38;9.40;86.50
57857;DHT22;43683;48.650;9.290;2023-03-20T06:44:04;9.50;86.30
57857;DHT22;43683;48.650;9.290;2023-03-20T06:46:30;9.60;86.10
57857;DHT22;43683;48.650;9.290;2023-03-20T06:48:55;9.70;85.70
57857;DHT22;43683;48.650;9.290;2023-03-20T06:51:21;9.80;85.60
57857;DHT22;43683;48.650;9.290;2023-03-20T06:53:46;9.80;85.50
57857;DHT22;43683;48.650;9.290;2023-03-20T06:56:12;9.90;85.50
57857;DHT22;43683;48.650;9.290;2023-03-20T06:58:37;9.90;85.50
57857;DHT22;43683;48.650;9.290;2023-03-20T07:01:10;9.90;85.40
57857;DHT22;43683;48.650;9.290;2023-03-20T07:03:37;9.90;85.40
57857;DHT22;43683;48.650;9.290;2023-03-20T07:06:03;9.90;85.60
57857;DHT22;43683;48.650;9.290;2023-03-20T07:08:29;9.90;85.80
57857;DHT22;43683;48.650;9.290;2023-03-20T07:10:54;9.90;85.80
57857;DHT22;43683;48.650;9.290;2023-03-20T07:13:20;10.00;85.50
57857;DHT22;43683;48.650;9.290;2023-03-20T07:15:45;10.10;85.20
57857;DHT22;43683;48.650;9.290;2023-03-20T07:18:11;10.20;84.70
57857;DHT22;43683;48.650;9.290;2023-03-20T07:20:36;10.50;83.90
57857;DHT22;43683;48.650;9.290;2023-03-20T07:23:02;10.80;82.90
57857;DHT22;43683;48.650;9.290;2023-03-20T07:25:27;11.20;82.00
57857;DHT22;43683;48.650;9.290;2023-03-20T07:27:53;11.50;81.30
57857;DHT22;43683;48.650;9.290;2023-03-20T07:30:18;11.60;80.80
57857;DHT22;43683;48.650;9.290;2023-03-20T07:32:44;11.60;80.80
57857;DHT22;43683;48.650;9.290;2023-03-20T07:35:10;11.50;80.90
57857;DHT22;43683;48.650;9.290;2023-03-20T07:37:36;11.40;81.10
57857;DHT22;43683;48.650;9.290;2023-03-20T07:40:02;11.40;81.10
57857;DHT22;43683;48.650;9.290;2023-03-20T07:42:28;11.50;80.90
57857;DHT22;43683;48.650;9.290;2023-03-20T07:44:54;11.50;80.80
57857;DHT22;43683;48.650;9.290;2023-03-20T07:47:19;11.20;81.30
57857;DHT22;43683;48.650;9.290;2023-03-20T07:49:45;11.00;81.90
57857;DHT22;43683;48.650;9.290;2023-03-20T07:52:11;10.80;82.30
57857;DHT22;43683;48.650;9.290;2023-03-20T07:54:36;10.80;82.40
57857;DHT22;43683;48.650;9.290;2023-03-20T07:57:02;11.00;81.80
57857;DHT22;43683;48.650;9.290;2023-03-20T07:59:29;11.50;80.80
57857;DHT22;43683;48.650;9.290;2023-03-20T08:01:55;12.00;79.70
57857;DHT22;43683;48.650;9.290;2023-03-20T08:04:20;12.30;78.60
57857;DHT22;43683;48.650;9.290;2023-03-20T08:06:47;12.50;78.10
57857;DHT22;43683;48.650;9.290;2023-03-20T08:09:13;12.40;78.10
57857;DHT22;43683;48.650;9.290;2023-03-20T08:11:39;12.20;78.50
57857;DHT22;43683;48.650;9.290;2023-03-20T08:14:05;12.20;78.60
57857;DHT22;43683;48.650;9.290;2023-03-20T08:16:30;12.40;78.30
57857;DHT22;43683;48.650;9.290;2023-03-20T08:18:56;12.50;77.70
57857;DHT22;43683;48.650;9.290;2023-03-20T08:21:27;12.80;77.10
57857;DHT22;43683;48.650;9.290;2023-03-20T08:23:53;13.20;76.30
57857;DHT22;43683;48.650;9.290;2023-03-20T08:26:19;13.60;75.20
57857;DHT22;43683;48.650;9.290;2023-03-20T08:28:45;13.90;74.50
57857;DHT22;43683;48.650;9.290;2023-03-20T08:31:10;13.90;74.20
57857;DHT22;43683;48.650;9.290;2023-03-20T08:33:36;14.00;74.10
57857;DHT22;43683;48.650;9.290;2023-03-20T08:36:01;13.90;74.40
57857;DHT22;43683;48.650;9.290;2023-03-20T08:38:27;13.80;74.60
57857;DHT22;43683;48.650;9.290;2023-03-20T08:40:53;13.60;74.80
57857;DHT22;43683;48.650;9.290;2023-03-20T08:43:19;13.30;75.30
57857;DHT22;43683;48.650;9.290;2023-03-20T08:45:45;13.00;75.80
57857;DHT22;43683;48.650;9.290;2023-03-20T08:48:10;12.80;76.30
57857;DHT22;43683;48.650;9.290;2023-03-20T08:50:36;12.70;76.70
57857;DHT22;43683;48.650;9.290;2023-03-20T08:53:02;12.70;76.20
57857;DHT22;43683;48.650;9.290;2023-03-20T08:55:28;13.00;75.60
57857;DHT22;43683;48.650;9.290;2023-03-20T08:57:53;13.10;74.90
57857;DHT22;43683;48.650;9.290;2023-03-20T09:00:21;13.20;74.30
57857;DHT22;43683;48.650;9.290;2023-03-20T09:02:48;13.40;74.30
57857;DHT22;43683;48.650;9.290;2023-03-20T09:05:13;13.50;73.80
57857;DHT22;43683;48.650;9.290;2023-03-20T09:07:39;13.70;73.60
57857;DHT22;43683;48.650;9.290;2023-03-20T09:10:05;13.80;73.00
57857;DHT22;43683;48.650;9.290;2023-03-20T09:12:31;13.80;72.60
57857;DHT22;43683;48.650;9.290;2023-03-20T09:14:57;13.80;72.50
57857;DHT22;43683;48.650;9.290;2023-03-20T09:17:23;13.80;72.60
57857;DHT22;43683;48.650;9.290;2023-03-20T09:19:48;13.80;72.40
57857;DHT22;43683;48.650;9.290;2023-03-20T09:22:14;13.80;72.40
57857;DHT22;43683;48.650;9.290;2023-03-20T09:24:42;13.90;72.20
57857;DHT22;43683;48.650;9.290;2023-03-20T09:27:08;14.10;71.80
57857;DHT22;43683;48.650;9.290;2023-03-20T09:29:33;14.20;71.40
57857;DHT22;43683;48.650;9.290;2023-03-20T09:31:59;14.20;71.30
57857;DHT22;43683;48.650;9.290;2023-03-20T09:34:25;14.30;71.30
57857;DHT22;43683;48.650;9.290;2023-03-20T09:36:51;14.30;71.20
57857;DHT22;43683;48.650;9.290;2023-03-20T09:39:16;14.60;70.60
57857;DHT22;43683;48.650;9.290;2023-03-20T09:41:47;14.60;70.40
57857;DHT22;43683;48.650;9.290;2023-03-20T09:44:30;14.50;70.80
57857;DHT22;43683;48.650;9.290;2023-03-20T09:46:59;14.60;69.90
57857;DHT22;43683;48.650;9.290;2023-03-20T09:52:36;14.70;69.10
57857;DHT22;43683;48.650;9.290;2023-03-20T09:55:17;14.90;68.90
57857;DHT22;43683;48.650;9.290;2023-03-20T09:57:52;15.10;68.50
57857;DHT22;43683;48.650;9.290;2023-03-20T10:00:23;15.30;68.10
57857;DHT22;43683;48.650;9.290;2023-03-20T10:03:01;15.50;67.80
57857;DHT22;43683;48.650;9.290;2023-03-20T10:05:34;15.40;67.40
57857;DHT22;43683;48.650;9.290;2023-03-20T10:08:04;15.50;67.30
57857;DHT22;43683;48.650;9.290;2023-03-20T10:10:57;15.50;67.10
57857;DHT22;43683;48.650;9.290;2023-03-20T10:16:18;15.50;66.50
57857;DHT22;43683;48.650;9.290;2023-03-20T10:19:38;15.30;66.60
57857;DHT22;43683;48.650;9.290;2023-03-20T10:21:44;15.00;67.00
57857;DHT22;43683;48.650;9.290;2023-03-20T10:24:22;14.70;67.00
57857;DHT22;43683;48.650;9.290;2023-03-20T10:26:51;14.50;67.30
57857;DHT22;43683;48.650;9.290;2023-03-20T10:32:16;14.00;67.90
57857;DHT22;43683;48.650;9.290;2023-03-20T10:34:48;13.80;68.00
57857;DHT22;43683;48.650;9.290;2023-03-20T10:42:41;13.20;68.40
57857;DHT22;43683;48.650;9.290;2023-03-20T10:47:55;13.20;68.30
57857;DHT22;43683;48.650;9.290;2023-03-20T10:50:34;13.10;68.40
57857;DHT22;43683;48.650;9.290;2023-03-20T10:53:02;12.90;68.50
57857;DHT22;43683;48.650;9.290;2023-03-20T10:55:33;13.00;68.50
57857;DHT22;43683;48.650;9.290;2023-03-20T10:58:18;13.00;68.20
57857;DHT22;43683;48.650;9.290;2023-03-20T11:00:46;13.20;67.80
57857;DHT22;43683;48.650;9.290;2023-03-20T11:03:20;13.70;67.10
57857;DHT22;43683;48.650;9.290;2023-03-20T11:05:57;14.30;66.60
57857;DHT22;43683;48.650;9.290;2023-03-20T11:08:25;14.90;64.80
57857;DHT22;43683;48.650;9.290;2023-03-20T11:11:02;15.40;64.20
57857;DHT22;43683;48.650;9.290;2023-03-20T11:13:34;15.70;63.40
57857;DHT22;43683;48.650;9.290;2023-03-20T11:16:10;15.80;63.20
57857;DHT22;43683;48.650;9.290;2023-03-20T11:18:36;15.80;63.10
57857;DHT22;43683;48.650;9.290;2023-03-20T11:21:02;15.80;63.50
57857;DHT22;43683;48.650;9.290;2023-03-20T11:23:31;15.60;63.60
57857;DHT22;43683;48.650;9.290;2023-03-20T11:26:05;15.40;63.70
57857;DHT22;43683;48.650;9.290;2023-03-20T11:29:00;15.20;63.80
57857;DHT22;43683;48.650;9.290;2023-03-20T11:31:30;15.30;63.60
57857;DHT22;43683;48.650;9.290;2023-03-20T11:36:54;15.10;63.50
57857;DHT22;43683;48.650;9.290;2023-03-20T11:39:25;15.10;63.40
57857;DHT22;43683;48.650;9.290;2023-03-20T11:41:54;15.10;63.40
57857;DHT22;43683;48.650;9.290;2023-03-20T11:44:25;15.20;63.20
57857;DHT22;43683;48.650;9.290;2023-03-20T11:47:11;15.20;62.60
57857;DHT22;43683;48.650;9.290;2023-03-20T11:49:57;15.30;62.30
57857;DHT22;43683;48.650;9.290;2023-03-20T11:52:32;15.30;62.30
57857;DHT22;43683;48.650;9.290;2023-03-20T11:55:02;15.40;62.20
57857;DHT22;43683;48.650;9.290;2023-03-20T12:00:02;15.30;61.90
57857;DHT22;43683;48.650;9.290;2023-03-20T12:02:28;15.20;62.20
57857;DHT22;43683;48.650;9.290;2023-03-20T12:04:58;15.20;62.20
57857;DHT22;43683;48.650;9.290;2023-03-20T12:07:28;15.20;61.60
57857;DHT22;43683;48.650;9.290;2023-03-20T12:09:59;15.20;62.00
57857;DHT22;43683;48.650;9.290;2023-03-20T12:15:31;15.50;60.90
57857;DHT22;43683;48.650;9.290;2023-03-20T12:18:04;15.50;60.60
57857;DHT22;43683;48.650;9.290;2023-03-20T12:21:28;15.30;60.80
57857;DHT22;43683;48.650;9.290;2023-03-20T12:23:57;15.20;60.40
57857;DHT22;43683;48.650;9.290;2023-03-20T12:26:31;15.40;60.10
57857;DHT22;43683;48.650;9.290;2023-03-20T12:31:45;15.50;59.70
57857;DHT22;43683;48.650;9.290;2023-03-20T12:36:46;15.90;59.20
57857;DHT22;43683;48.650;9.290;2023-03-20T12:39:15;16.20;58.40
57857;DHT22;43683;48.650;9.290;2023-03-20T12:45:09;16.60;57.70
57857;DHT22;43683;48.650;9.290;2023-03-20T12:50:39;17.00;56.90
57857;DHT22;43683;48.650;9.290;2023-03-20T12:53:40;17.00;57.00
57857;DHT22;43683;48.650;9.290;2023-03-20T13:01:56;16.60;57.60
57857;DHT22;43683;48.650;9.290;2023-03-20T13:04:54;16.10;58.00
57857;DHT22;43683;48.650;9.290;2023-03-20T13:07:51;15.60;59.10
57857;DHT22;43683;48.650;9.290;2023-03-20T13:10:27;15.30;59.70
57857;DHT22;43683;48.650;9.290;2023-03-20T13:21:46;15.10;59.70
57857;DHT22;43683;48.650;9.290;2023-03-20T13:26:53;15.00;59.60
57857;DHT22;43683;48.650;9.290;2023-03-20T13:35:38;14.80;59.70
57857;DHT22;43683;48.650;9.290;2023-03-20T13:38:30;15.00;59.20
57857;DHT22;43683;48.650;9.290;2023-03-20T13:41:00;15.40;58.60
57857;DHT22;43683;48.650;9.290;2023-03-20T13:46:35;15.70;58.10
57857;DHT22;43683;48.650;9.290;2023-03-20T13:49:10;15.50;58.20
57857;DHT22;43683;48.650;9.290;2023-03-20T13:54:45;15.20;58.80
57857;DHT22;43683;48.650;9.290;2023-03-20T13:57:56;15.50;58.50
57857;DHT22;43683;48.650;9.290;2023-03-20T14:03:07;15.70;58.10
57857;DHT22;43683;48.650;9.290;2023-03-20T14:05:40;15.80;57.90
57857;DHT22;43683;48.650;9.290;2023-03-20T14:13:29;15.70;58.00
57857;DHT22;43683;48.650;9.290;2023-03-20T14:15:56;15.60;58.10
57857;DHT22;43683;48.650;9.290;2023-03-20T14:18:25;15.40;58.20
57857;DHT22;43683;48.650;9.290;2023-03-20T14:20:59;15.30;58.20
57857;DHT22;43683;48.650;9.290;2023-03-20T14:23:46;15.20;58.30
57857;DHT22;43683;48.650;9.290;2023-03-20T14:29:01;14.70;59.10
57857;DHT22;43683;48.650;9.290;2023-03-20T14:31:28;14.50;59.40
57857;DHT22;43683;48.650;9.290;2023-03-20T14:37:02;14.10;60.10
57857;DHT22;43683;48.650;9.290;2023-03-20T14:45:19;13.70;60.60
57857;DHT22;43683;48.650;9.290;2023-03-20T14:50:34;13.80;60.40
57857;DHT22;43683;48.650;9.290;2023-03-20T14:53:13;13.80;60.30
57857;DHT22;43683;48.650;9.290;2023-03-20T15:01:07;13.90;60.20
57857;DHT22;43683;48.650;9.290;2023-03-20T15:03:35;13.90;60.10
57857;DHT22;43683;48.650;9.290;2023-03-20T15:06:05;13.90;59.90
57857;DHT22;43683;48.650;9.290;2023-03-20T15:08:41;13.90;59.80
57857;DHT22;43683;48.650;9.290;2023-03-20T15:11:09;13.90;59.60
57857;DHT22;43683;48.650;9.290;2023-03-20T15:13:36;13.80;59.90
57857;DHT22;43683;48.650;9.290;2023-03-20T15:16:07;13.70;60.10
57857;DHT22;43683;48.650;9.290;2023-03-20T15:18:44;13.60;60.20
57857;DHT22;43683;48.650;9.290;2023-03-20T15:21:18;13.50;60.30
57857;DHT22;43683;48.650;9.290;2023-03-20T15:23:47;13.40;60.30
57857;DHT22;43683;48.650;9.290;2023-03-20T15:26:17;13.40;60.50
57857;DHT22;43683;48.650;9.290;2023-03-20T15:28:45;13.30;60.50
57857;DHT22;43683;48.650;9.290;2023-03-20T15:31:26;13.30;60.70
57857;DHT22;43683;48.650;9.290;2023-03-20T15:33:52;13.30;60.70
57857;DHT22;43683;48.650;9.290;2023-03-20T15:36:22;13.20;60.70
57857;DHT22;43683;48.650;9.290;2023-03-20T15:38:49;13.30;60.90
57857;DHT22;43683;48.650;9.290;2023-03-20T15:41:31;13.30;60.70
57857;DHT22;43683;48.650;9.290;2023-03-20T15:46:39;13.30;60.50
57857;DHT22;43683;48.650;9.290;2023-03-20T15:49:05;13.30;60.50
57857;DHT22;43683;48.650;9.290;2023-03-20T15:51:32;13.30;60.60
57857;DHT22;43683;48.650;9.290;2023-03-20T15:53:59;13.20;60.50
57857;DHT22;43683;48.650;9.290;2023-03-20T15:56:26;13.20;60.60
57857;DHT22;43683;48.650;9.290;2023-03-20T15:58:52;13.10;60.60
57857;DHT22;43683;48.650;9.290;2023-03-20T16:01:20;13.00;60.70
57857;DHT22;43683;48.650;9.290;2023-03-20T16:03:47;13.00;60.90
57857;DHT22;43683;48.650;9.290;2023-03-20T16:06:20;12.90;61.10
57857;DHT22;43683;48.650;9.290;2023-03-20T16:08:56;12.90;61.30
57857;DHT22;43683;48.650;9.290;2023-03-20T16:11:22;12.90;61.40
57857;DHT22;43683;48.650;9.290;2023-03-20T16:13:48;12.80;61.50
57857;DHT22;43683;48.650;9.290;2023-03-20T16:16:20;12.90;61.50
57857;DHT22;43683;48.650;9.290;2023-03-20T16:18:46;12.80;61.50
57857;DHT22;43683;48.650;9.290;2023-03-20T16:21:25;12.80;61.50
57857;DHT22;43683;48.650;9.290;2023-03-20T16:23:53;12.80;62.30
57857;DHT22;43683;48.650;9.290;2023-03-20T16:26:22;12.80;61.50
57857;DHT22;43683;48.650;9.290;2023-03-20T16:28:54;12.90;61.40
57857;DHT22;43683;48.650;9.290;2023-03-20T16:31:29;13.00;61.30
57857;DHT22;43683;48.650;9.290;2023-03-20T16:34:05;13.00;61.20
57857;DHT22;43683;48.650;9.290;2023-03-20T16:36:34;13.00;61.20
57857;DHT22;43683;48.650;9.290;2023-03-20T16:39:18;13.00;61.20
57857;DHT22;43683;48.650;9.290;2023-03-20T16:41:46;13.00;61.20
57857;DHT22;43683;48.650;9.290;2023-03-20T16:44:19;12.90;61.40
57857;DHT22;43683;48.650;9.290;2023-03-20T16:47:14;12.90;61.60
57857;DHT22;43683;48.650;9.290;2023-03-20T16:52:24;12.70;61.80
57857;DHT22;43683;48.650;9.290;2023-03-20T16:54:51;12.60;62.00
57857;DHT22;43683;48.650;9.290;2023-03-20T16:57:17;12.50;62.20
57857;DHT22;43683;48.650;9.290;2023-03-20T16:59:43;12.40;62.50
57857;DHT22;43683;48.650;9.290;2023-03-20T17:02:11;12.20;62.80
57857;DHT22;43683;48.650;9.290;2023-03-20T17:04:46;12.00;63.10
57857;DHT22;43683;48.650;9.290;2023-03-20T17:07:17;11.70;63.60
57857;DHT22;43683;48.650;9.290;2023-03-20T17:10:11;11.50;64.10
57857;DHT22;43683;48.650;9.290;2023-03-20T17:12:46;11.20;64.50
57857;DHT22;43683;48.650;9.290;2023-03-20T17:15:18;11.00;64.90
57857;DHT22;43683;48.650;9.290;2023-03-20T17:17:44;10.90;65.30
57857;DHT22;43683;48.650;9.290;2023-03-20T17:20:22;10.80;65.30
57857;DHT22;43683;48.650;9.290;2023-03-20T17:22:48;10.70;65.30
57857;DHT22;43683;48.650;9.290;2023-03-20T17:25:13;10.70;65.20
57857;DHT22;43683;48.650;9.290;2023-03-20T17:27:39;10.70;65.10
57857;DHT22;43683;48.650;9.290;2023-03-20T17:30:09;10.70;65.10
57857;DHT22;43683;48.650;9.290;2023-03-20T17:32:37;10.60;65.30
57857;DHT22;43683;48.650;9.290;2023-03-20T17:35:03;10.50;65.50
57857;DHT22;43683;48.650;9.290;2023-03-20T17:37:29;10.40;65.70
57857;DHT22;43683;48.650;9.290;2023-03-20T17:39:54;10.40;65.80
57857;DHT22;43683;48.650;9.290;2023-03-20T17:42:24;10.30;65.80
57857;DHT22;43683;48.650;9.290;2023-03-20T17:44:54;10.30;66.00
57857;DHT22;43683;48.650;9.290;2023-03-20T17:47:22;10.20;66.10
57857;DHT22;43683;48.650;9.290;2023-03-20T17:49:49;10.20;66.30
57857;DHT22;43683;48.650;9.290;2023-03-20T17:52:27;10.10;66.40
57857;DHT22;43683;48.650;9.290;2023-03-20T17:54:52;10.10;66.40
57857;DHT22;43683;48.650;9.290;2023-03-20T17:57:26;10.10;66.40
57857;DHT22;43683;48.650;9.290;2023-03-20T17:59:54;10.00;66.50
57857;DHT22;43683;48.650;9.290;2023-03-20T18:02:20;10.00;66.50
57857;DHT22;43683;48.650;9.290;2023-03-20T18:04:46;10.00;66.60
57857;DHT22;43683;48.650;9.290;2023-03-20T18:07:11;10.00;66.90
57857;DHT22;43683;48.650;9.290;2023-03-20T18:09:38;10.00;67.20
57857;DHT22;43683;48.650;9.290;2023-03-20T18:12:05;10.00;67.40
57857;DHT22;43683;48.650;9.290;2023-03-20T18:14:30;10.00;67.20
57857;DHT22;43683;48.650;9.290;2023-03-20T18:16:56;10.00;66.90